Tapachula International Airport
MMTP : now visible

Airfield :











YOU CAN JOIN US ON...

 
LOGIN :

Register | Disclaimer

   EN    FR    IT 

 









Legend :    VFR   Marginal VFR   IFR   Intensive IFR   Very Intensive IFR
Visi :
Ceiling :
>= 8 km
>= 3000ft
5 to 8 km
1000 to 3000 ft
1500m to 5 km
500 to 1000 ft
800 to 1500m
200 to 500 ft
< 800m
< 200 ft
Symbols :   Thunderstorms  Fog  Heavy snow  Heavy precipitations  Wind > 20 kt






- Airport Elevation : 97 ft
- IATA code : TAP


MMTP - Tapachula International

CURRENT METAR :
  • 201340Z 00000KT 8SM SCT080 SCT200 27/25 A2988 RMK 8/031 HZY

EXPIRED METARs :
  • 201240Z 00000KT 5SM BKN100 24/24 A2986 RMK 8/030 HZY
  • 201158Z RTD 00000KT 5SM BKN140 23/23 A2985 RMK SLP131 5//// 952 8/030 HZY RTS

TAF TAF MMTP
Valid from the 20 at 12:00 until the 21 at 18:00 UTC


201049Z 2012/2118 00000KT P6SM BKN020
FM201600 32010KT P6SM SCT020 BKN120
TEMPO 2021/2101 5SM TSRA BKN020CB OVC120
FM210100 00000KT P6SM SCT020 BKN120
FM211700 24010KT P6SM BKN020 BKN120
MMFR FIR / North America



MET'MAP, your aeronautical weather chart ! - Copyright ORBIFLY December 2007 - Disclaimer

ORBIFLY MET'MAP TEAM :

Programming & Development : Alexandra Zaïnal
Concept & original design : Baudouin d'Aumeries
Assistance for programming : Marc-Olivier Méhu
Technical & hardware support : Manuel Goepfert

Contact : metmap@orbifly.com




SOURCES & CREDITS :

   NOAA       Earth
Advisory